createdAt,value
2017-07-06T00:00:52.407Z,21.50
2017-07-06T00:03:21.459Z,21.30
2017-07-06T00:05:49.733Z,21.30
2017-07-06T00:08:18.028Z,21.30
2017-07-06T00:10:46.308Z,21.20
2017-07-06T00:13:14.599Z,21.20
2017-07-06T00:15:42.872Z,21.10
2017-07-06T00:18:11.169Z,21.10
2017-07-06T00:20:40.212Z,21.00
2017-07-06T00:23:08.508Z,20.90
2017-07-06T00:25:36.792Z,21.00
2017-07-06T00:28:05.061Z,21.00
2017-07-06T00:30:33.355Z,21.00
2017-07-06T00:33:01.635Z,21.00
2017-07-06T00:35:29.926Z,21.00
2017-07-06T00:37:58.968Z,20.80
2017-07-06T00:40:27.270Z,20.80
2017-07-06T00:42:55.545Z,20.90
2017-07-06T00:45:23.844Z,20.80
2017-07-06T00:47:52.889Z,20.60
2017-07-06T00:50:21.187Z,20.60
2017-07-06T00:52:49.470Z,20.50
2017-07-06T00:55:17.780Z,20.50
2017-07-06T00:57:46.823Z,20.40
2017-07-06T01:03:15.136Z,20.50
2017-07-06T01:05:43.435Z,20.50
2017-07-06T01:08:11.711Z,20.50
2017-07-06T01:10:39.986Z,20.60
2017-07-06T01:13:08.269Z,20.50
2017-07-06T01:15:36.543Z,20.50
2017-07-06T01:18:04.837Z,20.50
2017-07-06T01:20:33.878Z,20.40
2017-07-06T01:23:02.155Z,20.30
2017-07-06T01:25:30.428Z,20.30
2017-07-06T01:27:58.725Z,20.20
2017-07-06T01:30:26.994Z,20.20
2017-07-06T01:32:55.290Z,20.10
2017-07-06T01:35:23.565Z,20.10
2017-07-06T01:37:51.842Z,20.10
2017-07-06T01:40:20.128Z,20.10
2017-07-06T01:42:48.401Z,20.10
2017-07-06T01:45:16.683Z,20.10
2017-07-06T01:47:44.960Z,20.10
2017-07-06T01:50:13.247Z,20.00
2017-07-06T01:52:41.515Z,19.90
2017-07-06T01:55:09.805Z,19.80
2017-07-06T01:57:38.077Z,19.70
2017-07-06T02:00:06.371Z,19.70
2017-07-06T02:02:35.410Z,19.80
2017-07-06T02:05:03.718Z,19.80
2017-07-06T02:07:31.992Z,19.80
2017-07-06T02:10:00.255Z,19.90
2017-07-06T02:12:28.541Z,19.80
2017-07-06T02:14:56.807Z,19.80
2017-07-06T02:17:25.092Z,19.70
2017-07-06T02:19:53.372Z,19.70
2017-07-06T02:22:21.671Z,19.60
2017-07-06T02:24:49.944Z,19.50
2017-07-06T02:27:19.010Z,19.50
2017-07-06T02:29:47.288Z,19.50
2017-07-06T02:32:15.605Z,19.50
2017-07-06T02:34:44.648Z,19.40
2017-07-06T02:37:12.953Z,19.40
2017-07-06T02:39:41.229Z,19.40
2017-07-06T02:42:09.491Z,19.30
2017-07-06T02:44:37.775Z,19.30
2017-07-06T02:47:06.091Z,19.30
2017-07-06T02:49:35.168Z,19.30
2017-07-06T02:52:03.439Z,19.30
2017-07-06T02:54:31.730Z,19.30
2017-07-06T02:57:00.000Z,19.30
2017-07-06T02:59:28.341Z,19.30
2017-07-06T03:01:56.617Z,19.10
2017-07-06T03:04:24.928Z,19.10
2017-07-06T03:06:53.201Z,19.10
2017-07-06T03:09:21.469Z,19.10
2017-07-06T03:11:49.761Z,19.10
2017-07-06T03:14:18.047Z,19.10
2017-07-06T03:16:47.101Z,19.10
2017-07-06T03:19:15.376Z,19.10
2017-07-06T03:21:43.700Z,19.10
2017-07-06T03:24:12.744Z,19.10
2017-07-06T03:26:41.029Z,19.10
2017-07-06T03:29:09.304Z,19.00
2017-07-06T03:31:37.610Z,19.00
2017-07-06T03:34:05.875Z,18.90
2017-07-06T03:36:34.182Z,18.90
2017-07-06T03:39:02.447Z,18.90
2017-07-06T03:41:30.715Z,18.80
2017-07-06T03:43:59.012Z,18.80
2017-07-06T03:46:28.055Z,18.90
2017-07-06T03:48:56.363Z,18.90
2017-07-06T03:51:24.628Z,19.00
2017-07-06T03:53:52.934Z,18.90
2017-07-06T03:56:21.217Z,18.90
2017-07-06T03:58:50.276Z,18.90
2017-07-06T04:01:18.552Z,18.90
2017-07-06T04:03:46.844Z,18.90
2017-07-06T04:06:15.143Z,18.90
2017-07-06T04:08:44.199Z,19.10
2017-07-06T04:11:12.492Z,19.00
2017-07-06T04:13:40.803Z,19.10
2017-07-06T04:16:09.856Z,19.10
2017-07-06T04:18:38.131Z,19.10
2017-07-06T04:21:07.012Z,19.20
2017-07-06T04:23:35.295Z,19.20
2017-07-06T04:26:03.575Z,19.30
2017-07-06T04:28:31.895Z,19.40
2017-07-06T04:31:00.944Z,19.40
2017-07-06T04:33:29.245Z,19.30
2017-07-06T04:35:57.538Z,19.40
2017-07-06T04:38:26.668Z,19.50
2017-07-06T04:40:54.943Z,19.50
2017-07-06T04:43:23.251Z,19.50
2017-07-06T04:45:51.529Z,19.60
2017-07-06T04:48:19.803Z,19.60
2017-07-06T04:50:48.103Z,19.60
2017-07-06T04:53:16.392Z,19.80
2017-07-06T04:55:45.452Z,20.30
2017-07-06T04:58:13.729Z,20.30
2017-07-06T05:00:42.040Z,20.90
2017-07-06T05:03:11.086Z,22.00
2017-07-06T05:05:39.375Z,22.00
2017-07-06T05:08:07.650Z,22.60
2017-07-06T05:10:35.931Z,23.10
2017-07-06T05:13:04.200Z,23.70
2017-07-06T05:15:32.486Z,24.20
2017-07-06T05:18:00.774Z,24.70
2017-07-06T05:20:29.047Z,25.10
2017-07-06T05:22:57.360Z,25.50
2017-07-06T05:25:25.634Z,25.90
2017-07-06T05:27:53.959Z,26.20
2017-07-06T05:30:22.239Z,26.40
2017-07-06T05:32:50.560Z,26.70
2017-07-06T05:35:19.227Z,27.00
2017-07-06T05:37:47.532Z,27.20
2017-07-06T05:40:16.567Z,27.40
2017-07-06T05:42:44.847Z,27.40
2017-07-06T05:45:13.144Z,27.50
2017-07-06T05:47:41.415Z,27.60
2017-07-06T05:50:09.711Z,27.50
2017-07-06T05:52:37.984Z,27.60
2017-07-06T05:55:06.275Z,27.60
2017-07-06T05:57:34.554Z,27.70
2017-07-06T06:00:02.841Z,27.80
2017-07-06T06:02:31.887Z,28.20
2017-07-06T06:05:00.200Z,28.20
2017-07-06T06:07:28.467Z,28.20
2017-07-06T06:09:56.743Z,28.30
2017-07-06T06:12:25.038Z,28.40
2017-07-06T06:14:53.310Z,28.60
2017-07-06T06:17:21.596Z,28.70
2017-07-06T06:19:50.640Z,29.00
2017-07-06T06:22:18.931Z,28.90
2017-07-06T06:24:47.199Z,29.20
2017-07-06T06:27:15.503Z,29.20
2017-07-06T06:29:43.776Z,29.30
2017-07-06T06:32:12.080Z,29.20
2017-07-06T06:34:41.127Z,29.40
2017-07-06T06:37:09.391Z,29.40
2017-07-06T06:39:37.675Z,29.50
2017-07-06T06:42:06.775Z,29.50
2017-07-06T06:44:35.068Z,29.40
2017-07-06T06:47:03.354Z,29.30
2017-07-06T06:49:31.646Z,29.30
2017-07-06T06:51:59.915Z,29.30
2017-07-06T06:54:28.211Z,29.40
2017-07-06T06:56:57.254Z,29.60
2017-07-06T06:59:25.547Z,29.60
2017-07-06T07:01:53.816Z,29.70
2017-07-06T07:04:22.860Z,29.80
2017-07-06T07:06:51.924Z,29.80
2017-07-06T07:09:20.205Z,29.80
2017-07-06T07:11:48.496Z,29.80
2017-07-06T07:14:16.768Z,29.90
2017-07-06T07:16:45.059Z,29.90
2017-07-06T07:19:14.145Z,30.10
2017-07-06T07:21:42.422Z,30.00
2017-07-06T07:24:10.714Z,30.20
2017-07-06T07:26:39.799Z,30.30
2017-07-06T07:29:08.083Z,30.30
2017-07-06T07:31:37.123Z,30.70
2017-07-06T07:34:05.413Z,30.70
2017-07-06T07:36:33.696Z,31.00
2017-07-06T07:39:01.979Z,31.20
2017-07-06T07:41:30.260Z,31.30
2017-07-06T07:43:58.582Z,31.40
2017-07-06T07:46:27.603Z,31.40
2017-07-06T07:48:55.887Z,31.40
2017-07-06T07:51:24.161Z,31.30
2017-07-06T07:53:52.475Z,31.10
2017-07-06T07:56:20.756Z,31.10
2017-07-06T07:58:49.019Z,31.10
2017-07-06T08:01:17.303Z,31.10
2017-07-06T08:03:45.580Z,31.10
2017-07-06T08:06:13.879Z,31.10
2017-07-06T08:08:42.915Z,30.90
2017-07-06T08:11:11.207Z,30.90
2017-07-06T08:13:39.481Z,30.90
2017-07-06T08:16:07.768Z,30.60
2017-07-06T08:18:36.035Z,30.40
2017-07-06T08:21:04.339Z,30.40
2017-07-06T08:23:32.615Z,30.50
2017-07-06T08:26:00.885Z,30.30
2017-07-06T08:28:29.216Z,30.20
2017-07-06T08:30:57.495Z,30.30
2017-07-06T08:33:25.779Z,30.30
2017-07-06T08:35:54.055Z,30.30
2017-07-06T08:38:22.351Z,30.20
2017-07-06T08:40:50.615Z,30.30
2017-07-06T08:43:18.916Z,30.20
2017-07-06T08:45:47.196Z,30.30
2017-07-06T08:48:15.501Z,30.20
2017-07-06T08:50:44.549Z,30.20
2017-07-06T08:53:12.831Z,30.20
2017-07-06T08:55:41.126Z,30.30
2017-07-06T08:58:09.394Z,30.50
2017-07-06T09:00:37.683Z,30.40
2017-07-06T09:03:05.952Z,30.40
2017-07-06T09:05:34.234Z,30.60
2017-07-06T09:08:02.508Z,30.70
2017-07-06T09:10:30.783Z,30.60
2017-07-06T09:12:59.054Z,30.70
2017-07-06T09:15:27.365Z,30.70
2017-07-06T09:17:55.640Z,30.70
2017-07-06T09:20:23.911Z,31.00
2017-07-06T09:22:52.195Z,31.10
2017-07-06T09:25:20.486Z,31.10
2017-07-06T09:27:48.779Z,31.30
2017-07-06T09:30:17.048Z,31.30
2017-07-06T09:32:45.352Z,31.30
2017-07-06T09:35:13.615Z,31.20
2017-07-06T09:37:41.912Z,31.40
2017-07-06T09:40:10.187Z,31.50
2017-07-06T09:42:38.494Z,31.40
2017-07-06T09:45:06.764Z,31.60
2017-07-06T09:47:35.049Z,31.80
2017-07-06T09:50:03.344Z,32.00
2017-07-06T09:52:31.616Z,32.00
2017-07-06T09:54:59.930Z,32.00
2017-07-06T09:57:28.963Z,32.20
2017-07-06T09:59:57.252Z,32.20
2017-07-06T10:02:25.520Z,32.20
2017-07-06T10:04:53.845Z,32.20
2017-07-06T10:07:22.103Z,32.30
2017-07-06T10:09:50.390Z,32.40
2017-07-06T10:12:19.428Z,32.50
2017-07-06T10:14:47.731Z,32.50
2017-07-06T10:17:16.022Z,32.40
2017-07-06T10:19:44.287Z,32.50
2017-07-06T10:22:12.576Z,32.70
2017-07-06T10:24:40.857Z,32.60
2017-07-06T10:27:09.144Z,32.70
2017-07-06T10:29:37.420Z,32.60
2017-07-06T10:32:05.708Z,32.60
2017-07-06T10:34:34.749Z,32.60
2017-07-06T10:37:03.039Z,32.70
2017-07-06T10:39:31.322Z,32.60
2017-07-06T10:41:59.635Z,32.70
2017-07-06T10:44:28.147Z,32.70
2017-07-06T10:46:56.400Z,32.70
2017-07-06T10:49:25.471Z,32.60
2017-07-06T10:51:53.737Z,32.60
2017-07-06T10:54:22.016Z,32.60
2017-07-06T10:56:50.287Z,32.70
2017-07-06T10:59:18.568Z,32.90
2017-07-06T11:01:46.853Z,32.90
2017-07-06T11:04:15.940Z,33.00
2017-07-06T11:06:44.211Z,32.90
2017-07-06T11:09:12.480Z,33.00
2017-07-06T11:11:40.770Z,33.00
2017-07-06T11:14:09.055Z,33.00
2017-07-06T11:16:37.340Z,32.80
2017-07-06T11:19:05.606Z,32.60
2017-07-06T11:21:33.892Z,32.50
2017-07-06T11:24:02.175Z,32.70
2017-07-06T11:26:30.483Z,32.60
2017-07-06T11:28:58.761Z,32.60
2017-07-06T11:31:27.027Z,32.60
2017-07-06T11:33:55.312Z,32.70
2017-07-06T11:36:23.588Z,32.90
2017-07-06T11:38:51.875Z,32.70
2017-07-06T11:41:20.134Z,32.80
2017-07-06T11:43:48.430Z,32.90
2017-07-06T11:46:16.707Z,33.00
2017-07-06T11:48:45.003Z,33.20
2017-07-06T11:51:13.268Z,32.90
2017-07-06T11:53:41.563Z,32.90
2017-07-06T11:56:09.839Z,32.70
2017-07-06T11:58:38.106Z,32.80
2017-07-06T12:01:07.321Z,32.80
2017-07-06T12:03:35.589Z,32.60
2017-07-06T12:06:03.875Z,32.50
2017-07-06T12:08:32.143Z,32.60
2017-07-06T12:11:00.426Z,32.60
2017-07-06T12:13:28.709Z,32.60
2017-07-06T12:15:57.010Z,32.60
2017-07-06T12:18:25.270Z,32.70
2017-07-06T12:20:53.552Z,32.90
2017-07-06T12:23:21.818Z,33.00
2017-07-06T12:25:50.079Z,32.80
2017-07-06T12:28:18.370Z,32.80
2017-07-06T12:30:46.639Z,32.80
2017-07-06T12:33:14.921Z,32.80
2017-07-06T12:35:43.194Z,32.70
2017-07-06T12:38:11.475Z,32.70
2017-07-06T12:40:39.744Z,32.80
2017-07-06T12:43:08.031Z,32.90
2017-07-06T12:45:36.303Z,33.00
2017-07-06T12:48:04.591Z,33.00
2017-07-06T12:50:32.876Z,33.10
2017-07-06T12:53:01.135Z,33.20
2017-07-06T12:55:29.415Z,33.10
2017-07-06T12:57:57.706Z,33.10
2017-07-06T13:00:26.088Z,33.10
2017-07-06T13:02:54.387Z,33.20
2017-07-06T13:05:23.439Z,33.00
2017-07-06T13:07:51.711Z,33.00
2017-07-06T13:10:20.011Z,32.80
2017-07-06T13:12:48.301Z,32.60
2017-07-06T13:15:17.352Z,32.50
2017-07-06T13:17:45.640Z,32.50
2017-07-06T13:20:13.908Z,32.30
2017-07-06T13:22:42.191Z,32.10
2017-07-06T13:25:10.463Z,31.90
2017-07-06T13:27:38.752Z,31.80
2017-07-06T13:30:07.019Z,31.70
2017-07-06T13:32:35.304Z,31.60
2017-07-06T13:35:03.575Z,31.50
2017-07-06T13:37:31.860Z,31.60
2017-07-06T13:40:00.131Z,31.60
2017-07-06T13:42:28.396Z,31.70
2017-07-06T13:44:56.710Z,31.80
2017-07-06T13:47:24.984Z,31.80
2017-07-06T13:49:53.271Z,31.60
2017-07-06T13:52:21.590Z,31.50
2017-07-06T13:54:49.827Z,31.30
2017-07-06T13:57:18.109Z,31.20
2017-07-06T13:59:46.412Z,31.00
2017-07-06T14:02:14.685Z,30.90
2017-07-06T14:04:43.739Z,31.10
2017-07-06T14:07:12.015Z,31.10
2017-07-06T14:09:40.324Z,31.30
2017-07-06T14:12:08.587Z,31.40
2017-07-06T14:14:36.852Z,31.50
2017-07-06T14:17:05.136Z,31.50
2017-07-06T14:19:33.414Z,31.70
2017-07-06T14:22:01.700Z,31.80
2017-07-06T14:24:30.009Z,31.80
2017-07-06T14:26:59.047Z,31.80
2017-07-06T14:29:27.316Z,31.80
2017-07-06T14:31:55.601Z,31.80
2017-07-06T14:34:23.884Z,31.90
2017-07-06T14:36:52.159Z,32.00
2017-07-06T14:39:20.423Z,32.10
2017-07-06T14:41:48.704Z,32.00
2017-07-06T14:44:16.972Z,32.00
2017-07-06T14:46:45.244Z,32.10
2017-07-06T14:49:13.527Z,32.20
2017-07-06T14:51:41.820Z,32.30
2017-07-06T14:54:10.094Z,32.30
2017-07-06T14:56:38.378Z,32.30
2017-07-06T14:59:06.650Z,32.10
2017-07-06T15:01:34.952Z,32.00
2017-07-06T15:04:03.235Z,32.00
2017-07-06T15:06:31.501Z,32.00
2017-07-06T15:08:59.790Z,31.90
2017-07-06T15:11:28.049Z,32.00
2017-07-06T15:13:56.342Z,31.90
2017-07-06T15:16:24.613Z,32.00
2017-07-06T15:18:52.876Z,32.00
2017-07-06T15:21:21.160Z,32.00
2017-07-06T15:23:49.428Z,32.00
2017-07-06T15:26:17.716Z,31.90
2017-07-06T15:28:45.990Z,31.90
2017-07-06T15:31:14.269Z,31.80
2017-07-06T15:33:42.534Z,31.70
2017-07-06T15:36:10.820Z,31.70
2017-07-06T15:38:39.091Z,31.70
2017-07-06T15:41:07.699Z,31.60
2017-07-06T15:43:36.736Z,31.80
2017-07-06T15:46:05.020Z,31.70
2017-07-06T15:48:33.299Z,31.80
2017-07-06T15:51:01.585Z,31.80
2017-07-06T15:53:29.861Z,31.70
2017-07-06T15:55:58.133Z,31.60
2017-07-06T15:58:26.420Z,31.60
2017-07-06T16:00:54.679Z,31.60
2017-07-06T16:03:22.972Z,31.50
2017-07-06T16:05:51.235Z,31.50
2017-07-06T16:08:19.523Z,31.40
2017-07-06T16:10:47.783Z,31.40
2017-07-06T16:13:16.116Z,31.40
2017-07-06T16:15:44.339Z,31.40
2017-07-06T16:18:12.640Z,31.40
2017-07-06T16:20:40.944Z,31.40
2017-07-06T16:23:09.230Z,31.50
2017-07-06T16:25:38.289Z,31.50
2017-07-06T16:28:06.547Z,31.50
2017-07-06T16:30:34.841Z,31.30
2017-07-06T16:33:03.112Z,31.30
2017-07-06T16:35:31.395Z,31.40
2017-07-06T16:37:59.658Z,31.40
2017-07-06T16:40:27.942Z,31.40
2017-07-06T16:42:56.209Z,31.50
2017-07-06T16:45:24.495Z,31.50
2017-07-06T16:47:52.759Z,31.30
2017-07-06T16:50:21.047Z,31.30
2017-07-06T16:52:49.308Z,31.40
2017-07-06T16:55:17.578Z,31.50
2017-07-06T16:57:45.863Z,31.50
2017-07-06T17:00:14.133Z,31.50
2017-07-06T17:02:42.406Z,31.50
2017-07-06T17:05:10.681Z,31.50
2017-07-06T17:07:38.974Z,31.50
2017-07-06T17:10:07.240Z,31.50
2017-07-06T17:12:35.531Z,31.50
2017-07-06T17:15:03.811Z,31.60
2017-07-06T17:17:32.103Z,31.50
2017-07-06T17:20:00.376Z,31.50
2017-07-06T17:22:28.663Z,31.40
2017-07-06T17:24:56.922Z,31.40
2017-07-06T17:27:25.187Z,31.30
2017-07-06T17:29:53.471Z,31.30
2017-07-06T17:32:21.736Z,31.30
2017-07-06T17:34:50.019Z,31.30
2017-07-06T17:37:18.294Z,31.30
2017-07-06T17:39:46.589Z,31.40
2017-07-06T17:42:14.855Z,31.40
2017-07-06T17:44:43.136Z,31.30
2017-07-06T17:47:11.400Z,31.30
2017-07-06T17:49:39.678Z,31.40
2017-07-06T17:52:07.947Z,31.30
2017-07-06T17:54:36.274Z,31.20
2017-07-06T17:57:04.547Z,31.20
2017-07-06T17:59:32.831Z,31.10
2017-07-06T18:02:01.120Z,31.10
2017-07-06T18:04:29.403Z,31.10
2017-07-06T18:06:58.452Z,31.10
2017-07-06T18:09:26.723Z,31.10
2017-07-06T18:11:55.011Z,31.10
2017-07-06T18:14:23.332Z,31.20
2017-07-06T18:16:52.391Z,31.20
2017-07-06T18:19:20.688Z,31.20
2017-07-06T18:21:48.967Z,31.20
2017-07-06T18:24:17.374Z,31.20
2017-07-06T18:26:46.475Z,31.20
2017-07-06T18:29:14.772Z,31.10
2017-07-06T18:31:43.030Z,31.20
2017-07-06T18:34:11.315Z,31.20
2017-07-06T18:36:39.583Z,31.00
2017-07-06T18:39:07.871Z,31.00
2017-07-06T18:41:36.179Z,30.90
2017-07-06T18:44:04.471Z,30.80
2017-07-06T18:46:32.744Z,30.70
2017-07-06T18:49:01.055Z,30.70
2017-07-06T18:51:30.523Z,30.70
2017-07-06T18:53:58.818Z,30.60
2017-07-06T18:56:27.091Z,30.60
2017-07-06T18:58:55.400Z,30.50
2017-07-06T19:01:24.457Z,30.30
2017-07-06T19:03:52.787Z,30.30
2017-07-06T19:06:21.071Z,30.10
2017-07-06T19:08:49.340Z,30.00
2017-07-06T19:11:17.615Z,30.00
2017-07-06T19:13:45.875Z,30.00
2017-07-06T19:16:14.953Z,29.60
2017-07-06T19:18:43.220Z,29.60
2017-07-06T19:21:11.500Z,29.50
2017-07-06T19:23:39.778Z,29.40
2017-07-06T19:26:08.075Z,29.20
2017-07-06T19:28:36.360Z,29.10
2017-07-06T19:31:04.685Z,29.10
2017-07-06T19:33:33.954Z,29.00
2017-07-06T19:36:02.221Z,28.90
2017-07-06T19:38:30.517Z,28.90
2017-07-06T19:40:58.930Z,28.90
2017-07-06T19:43:27.205Z,28.60
2017-07-06T19:45:55.473Z,28.40
2017-07-06T19:48:23.772Z,28.30
2017-07-06T19:50:52.036Z,28.20
2017-07-06T19:53:20.337Z,28.20
2017-07-06T19:55:48.613Z,28.10
2017-07-06T19:58:17.669Z,28.20
2017-07-06T20:00:45.952Z,28.10
2017-07-06T20:03:14.248Z,28.10
2017-07-06T20:05:42.532Z,28.00
2017-07-06T20:08:10.852Z,27.90
2017-07-06T20:10:39.131Z,27.70
2017-07-06T20:13:07.402Z,27.80
2017-07-06T20:15:35.684Z,27.70
2017-07-06T20:18:03.961Z,27.70
2017-07-06T20:20:32.271Z,27.60
2017-07-06T20:23:00.554Z,27.40
2017-07-06T20:25:28.843Z,27.10
2017-07-06T20:27:57.143Z,26.90
2017-07-06T20:30:26.200Z,26.90
2017-07-06T20:32:54.478Z,26.80
2017-07-06T20:35:22.779Z,26.90
2017-07-06T20:37:51.060Z,26.90
2017-07-06T20:40:19.374Z,26.90
2017-07-06T20:42:47.651Z,26.80
2017-07-06T20:45:15.928Z,26.70
2017-07-06T20:47:44.223Z,26.60
2017-07-06T20:50:12.499Z,26.40
2017-07-06T20:52:40.786Z,26.40
2017-07-06T20:55:09.064Z,26.40
2017-07-06T20:57:37.351Z,26.40
2017-07-06T21:00:05.626Z,26.40
2017-07-06T21:02:33.919Z,26.30
2017-07-06T21:05:02.264Z,26.30
2017-07-06T21:07:30.604Z,26.20
2017-07-06T21:09:59.700Z,25.90
2017-07-06T21:12:28.820Z,25.70
2017-07-06T21:14:57.091Z,25.70
2017-07-06T21:17:25.407Z,25.60
2017-07-06T21:19:53.774Z,25.60
2017-07-06T21:22:22.034Z,25.60
2017-07-06T21:24:50.319Z,25.60
2017-07-06T21:27:18.590Z,25.50
2017-07-06T21:29:46.891Z,25.60
2017-07-06T21:32:15.169Z,25.60
2017-07-06T21:34:43.467Z,25.70
2017-07-06T21:37:11.736Z,25.60
2017-07-06T21:39:40.048Z,25.60
2017-07-06T21:42:08.319Z,25.60
2017-07-06T21:44:36.594Z,25.50
2017-07-06T21:47:05.653Z,25.50
2017-07-06T21:49:33.919Z,25.50
2017-07-06T21:52:02.279Z,25.50
2017-07-06T21:54:30.556Z,25.50
2017-07-06T21:56:58.841Z,25.60
2017-07-06T21:59:27.121Z,25.60
2017-07-06T22:01:55.415Z,25.60
2017-07-06T22:04:23.699Z,25.50
2017-07-06T22:06:51.992Z,25.50
2017-07-06T22:09:20.269Z,25.40
2017-07-06T22:11:48.544Z,25.30
2017-07-06T22:14:16.831Z,25.20
2017-07-06T22:16:45.115Z,25.20
2017-07-06T22:19:13.403Z,25.20
2017-07-06T22:21:41.706Z,25.30
2017-07-06T22:24:09.990Z,25.20
2017-07-06T22:26:38.258Z,25.20
2017-07-06T22:29:06.552Z,25.20
2017-07-06T22:31:34.832Z,25.30
2017-07-06T22:34:03.141Z,25.30
2017-07-06T22:36:31.408Z,25.30
2017-07-06T22:38:59.690Z,25.30
2017-07-06T22:41:27.975Z,25.30
2017-07-06T22:43:56.251Z,25.20
2017-07-06T22:46:24.554Z,25.10
2017-07-06T22:48:53.584Z,25.00
2017-07-06T22:51:21.881Z,25.00
2017-07-06T22:53:50.143Z,24.90
2017-07-06T22:56:18.433Z,24.90
2017-07-06T22:58:46.705Z,24.90
2017-07-06T23:01:14.996Z,24.80
2017-07-06T23:03:43.260Z,24.80
2017-07-06T23:06:11.540Z,24.70
2017-07-06T23:08:39.829Z,24.60
2017-07-06T23:11:08.104Z,24.60
2017-07-06T23:13:36.394Z,24.50
2017-07-06T23:16:04.659Z,24.50
2017-07-06T23:18:32.943Z,24.50
2017-07-06T23:21:01.217Z,24.40
2017-07-06T23:23:29.504Z,24.40
2017-07-06T23:25:57.781Z,24.30
2017-07-06T23:28:26.077Z,24.20
2017-07-06T23:30:55.129Z,24.10
2017-07-06T23:33:23.409Z,24.10
2017-07-06T23:35:51.681Z,24.10
2017-07-06T23:38:19.956Z,24.10
2017-07-06T23:40:48.255Z,24.00
2017-07-06T23:43:16.534Z,23.90
2017-07-06T23:45:44.824Z,23.90
2017-07-06T23:48:13.092Z,23.80
2017-07-06T23:50:41.375Z,23.80
2017-07-06T23:53:10.423Z,23.70
2017-07-06T23:55:38.727Z,23.70
2017-07-06T23:58:06.995Z,23.70
